Portville, New York
Current Conditions -  °F | °C
As of 9:15 AM on Tuesday 27 Jan 2015 (Local Time) from KOLE Reporting Station
Light Snow Light Snow  
Wind Chill:   Ceiling: 700
Heat Index: 12°   Visibility: 1.2mi
Dew Point: 12°   Wind: 5mph
Humidity: 100%   Direction: 360°N
Pressure: 29.83"   Gusts: NA
Location:  42.04°N, 78.34°W
Report Text: KOLE 271415Z AUTO 36004KT 1 1/4SM -SN BKN007 BKN011 OVC027 M11/M11 A2983 RMK AO2
Loading
Personal Weather Stations






























Interactive Weather Map New forecast layout! Learn more

10-Day Weather Forecast

Advertisements
Track Severe Weather on mobile